Aiquara, Brazil
Current Conditions -  °F | °C
As of 5:00 AM on Thursday 29 Jan 2015 (Local Time) from SBIL Reporting Station
Rain Showers Rain Showers  
Wind Chill: 73°   Ceiling: Unl
Heat Index: 73°   Visibility: 4mi
Dew Point: 72°   Wind: 5mph
Humidity: 94%   Direction: 240°WSW
Pressure: NA   Gusts: NA
Location:  14.13°S, 39.89°W
Report Text: SBIL 290800Z 24004KT 7000 -SHRA SCT025 FEW030TCU SCT070 23/22 Q1013
Loading
Personal Weather Stations






























Interactive Weather Map New forecast layout! Learn more

10-Day Weather Forecast

Advertisements
Track Severe Weather on mobile